createdAt,value
2019-05-02T00:02:16.192Z,98963.83
2019-05-02T00:04:50.951Z,98960.84
2019-05-02T00:07:21.809Z,98959.39
2019-05-02T00:09:53.733Z,98959.39
2019-05-02T00:12:25.901Z,98957.94
2019-05-02T00:15:01.945Z,98950.57
2019-05-02T00:17:32.795Z,98949.83
2019-05-02T00:20:10.211Z,98953.48
2019-05-02T00:22:41.754Z,98953.54
2019-05-02T00:25:16.096Z,98952.99
2019-05-02T00:27:47.280Z,98945.64
2019-05-02T00:30:18.869Z,98945.64
2019-05-02T00:32:53.235Z,98954.19
2019-05-02T00:35:23.678Z,98946.61
2019-05-02T00:37:57.389Z,98938.77
2019-05-02T00:40:28.395Z,98937.73
2019-05-02T00:43:00.065Z,98936.33
2019-05-02T00:45:31.633Z,98941.19
2019-05-02T00:48:04.814Z,98942.31
2019-05-02T00:50:40.571Z,98938.55
2019-05-02T00:53:12.141Z,98927.53
2019-05-02T00:55:44.919Z,98931.87
2019-05-02T00:58:16.523Z,98924.50
2019-05-02T01:00:53.165Z,98924.50
2019-05-02T01:03:23.316Z,98931.39
2019-05-02T01:05:55.801Z,98933.00
2019-05-02T01:08:30.969Z,98930.61
2019-05-02T01:11:00.639Z,98929.30
2019-05-02T01:13:32.231Z,98929.30
2019-05-02T01:16:03.790Z,98928.75
2019-05-02T01:18:37.202Z,98914.35
2019-05-02T01:21:09.070Z,98914.35
2019-05-02T01:23:40.661Z,98922.91
2019-05-02T01:26:13.342Z,98917.81
2019-05-02T01:28:49.251Z,98913.31
2019-05-02T01:31:24.141Z,98912.39
2019-05-02T01:34:00.106Z,98909.06
2019-05-02T01:36:49.678Z,98911.95
2019-05-02T01:39:22.264Z,98915.22
2019-05-02T01:41:54.147Z,98914.73
2019-05-02T01:44:25.712Z,98919.18
2019-05-02T01:46:58.825Z,98909.26
2019-05-02T01:49:32.820Z,98920.66
2019-05-02T01:52:04.374Z,98920.66
2019-05-02T01:54:40.637Z,98919.91
2019-05-02T01:57:10.722Z,98918.66
2019-05-02T01:59:42.344Z,98917.53
2019-05-02T02:02:13.882Z,98919.57
2019-05-02T02:04:45.446Z,98926.72
2019-05-02T02:07:19.917Z,98924.77
2019-05-02T02:09:51.424Z,98926.17
2019-05-02T02:12:23.022Z,98918.11
2019-05-02T02:14:55.517Z,98918.11
2019-05-02T02:17:27.174Z,98924.08
2019-05-02T02:20:01.350Z,98927.78
2019-05-02T02:22:39.210Z,98924.66
2019-05-02T02:25:32.131Z,98927.00
2019-05-02T02:28:02.366Z,98920.98
2019-05-02T02:30:33.907Z,98920.98
2019-05-02T02:33:09.412Z,98928.61
2019-05-02T02:35:49.766Z,98930.61
2019-05-02T02:38:12.981Z,98940.14
2019-05-02T02:40:44.460Z,98940.14
2019-05-02T02:43:32.869Z,98937.36
2019-05-02T02:45:57.170Z,98938.88
2019-05-02T02:48:24.506Z,98925.81
2019-05-02T02:50:56.127Z,98927.71
2019-05-02T02:53:30.275Z,98936.80
2019-05-02T02:56:08.286Z,98936.80
2019-05-02T02:58:45.652Z,98937.15
2019-05-02T03:01:13.275Z,98937.87
2019-05-02T03:03:45.957Z,98935.56
2019-05-02T03:06:18.992Z,98941.83
2019-05-02T03:08:51.912Z,98945.53
2019-05-02T03:11:25.543Z,98935.23
2019-05-02T03:14:07.260Z,98933.35
2019-05-02T03:16:46.233Z,98940.77
2019-05-02T03:19:14.659Z,98940.77
2019-05-02T03:22:01.085Z,98947.80
2019-05-02T03:24:28.992Z,98955.42
2019-05-02T03:27:00.593Z,98955.42
2019-05-02T03:29:41.835Z,98958.91
2019-05-02T03:32:16.646Z,98947.45
2019-05-02T03:34:48.920Z,98961.55
2019-05-02T03:37:15.974Z,98961.55
2019-05-02T03:39:57.349Z,98958.15
2019-05-02T03:42:21.240Z,98961.28
2019-05-02T03:44:56.397Z,98963.14
2019-05-02T03:47:27.113Z,98966.55
2019-05-02T03:50:02.166Z,98966.55
2019-05-02T03:52:36.634Z,98972.09
2019-05-02T03:55:09.125Z,98978.09
2019-05-02T03:57:42.618Z,98999.98
2019-05-02T04:00:21.151Z,98993.53
2019-05-02T04:02:59.050Z,99003.27
2019-05-02T04:05:25.266Z,99003.27
2019-05-02T04:07:59.220Z,98999.56
2019-05-02T04:10:52.935Z,99008.56
2019-05-02T04:13:22.532Z,99009.16
2019-05-02T04:15:54.205Z,99006.66
2019-05-02T04:18:26.296Z,99004.17
2019-05-02T04:20:59.438Z,99007.73
2019-05-02T04:23:31.740Z,99004.25
2019-05-02T04:26:06.695Z,99011.25
2019-05-02T04:28:37.168Z,99012.91
2019-05-02T04:31:10.205Z,99017.44
2019-05-02T04:33:41.863Z,99019.59
2019-05-02T04:36:17.317Z,99023.85
2019-05-02T04:38:51.619Z,99025.78
2019-05-02T04:41:28.590Z,99025.78
2019-05-02T04:43:57.730Z,99026.27
2019-05-02T04:46:31.200Z,99035.02
2019-05-02T04:49:01.591Z,99035.02
2019-05-02T04:51:33.241Z,99040.65
2019-05-02T04:54:05.045Z,99032.67
2019-05-02T04:56:42.076Z,99035.37
2019-05-02T04:59:17.795Z,99036.84
2019-05-02T05:01:52.936Z,99030.23
2019-05-02T05:04:20.683Z,99031.83
2019-05-02T05:06:56.011Z,99031.83
2019-05-02T05:09:27.918Z,99042.63
2019-05-02T05:12:02.474Z,99046.72
2019-05-02T05:14:39.121Z,99053.91
2019-05-02T05:17:08.474Z,99049.69
2019-05-02T05:19:43.444Z,99045.27
2019-05-02T05:22:18.459Z,99058.84
2019-05-02T05:24:52.935Z,99060.41
2019-05-02T05:27:27.475Z,99058.48
2019-05-02T05:30:07.651Z,99066.53
2019-05-02T05:32:37.592Z,99067.11
2019-05-02T05:35:12.943Z,99076.89
2019-05-02T05:37:47.902Z,99079.60
2019-05-02T05:40:22.739Z,99082.09
2019-05-02T05:42:52.368Z,99089.05
2019-05-02T05:45:27.892Z,99089.85
2019-05-02T05:48:01.201Z,99094.05
2019-05-02T05:50:37.716Z,99086.20
2019-05-02T05:53:07.948Z,99095.04
2019-05-02T05:55:42.295Z,99091.78
2019-05-02T05:58:15.762Z,99103.27
2019-05-02T06:00:54.196Z,99103.38
2019-05-02T06:03:24.734Z,99103.41
2019-05-02T06:05:57.979Z,99106.22
2019-05-02T06:08:32.012Z,99102.09
2019-05-02T06:11:03.756Z,99101.26
2019-05-02T06:13:38.249Z,99111.71
2019-05-02T06:16:10.472Z,99114.52
2019-05-02T06:18:45.104Z,99110.18
2019-05-02T06:21:19.568Z,99119.63
2019-05-02T06:23:51.772Z,99117.54
2019-05-02T06:26:26.764Z,99119.13
2019-05-02T06:28:59.962Z,99123.19
2019-05-02T06:31:32.537Z,99124.11
2019-05-02T06:34:08.366Z,99119.22
2019-05-02T06:36:40.823Z,99124.44
2019-05-02T06:39:12.706Z,99120.23
2019-05-02T06:41:45.401Z,99124.67
2019-05-02T06:44:23.829Z,99129.72
2019-05-02T06:46:52.403Z,99125.52
2019-05-02T06:49:25.979Z,99142.83
2019-05-02T06:51:59.529Z,99140.47
2019-05-02T06:54:31.214Z,99148.36
2019-05-02T06:57:03.383Z,99149.44
2019-05-02T06:59:35.017Z,99143.75
2019-05-02T07:02:09.866Z,99153.53
2019-05-02T07:04:41.565Z,99151.58
2019-05-02T07:07:13.472Z,99152.72
2019-05-02T07:09:46.029Z,99152.95
2019-05-02T07:12:17.855Z,99150.41
2019-05-02T07:14:49.574Z,99149.63
2019-05-02T07:17:42.133Z,99156.89
2019-05-02T07:20:14.657Z,99160.89
2019-05-02T07:22:46.889Z,99157.41
2019-05-02T07:25:18.686Z,99160.38
2019-05-02T07:27:50.994Z,99168.67
2019-05-02T07:30:23.608Z,99164.87
2019-05-02T07:32:56.335Z,99169.33
2019-05-02T07:35:30.949Z,99172.27
2019-05-02T07:38:02.792Z,99179.11
2019-05-02T07:40:36.610Z,99188.17
2019-05-02T07:43:08.452Z,99184.39
2019-05-02T07:45:45.432Z,99197.52
2019-05-02T07:48:17.773Z,99205.73
2019-05-02T07:50:49.834Z,99202.91
2019-05-02T07:53:27.275Z,99210.85
2019-05-02T07:55:59.026Z,99213.16
2019-05-02T07:58:32.395Z,99211.77
2019-05-02T08:01:08.188Z,99212.22
2019-05-02T08:03:39.882Z,99221.84
2019-05-02T08:06:13.288Z,99213.67
2019-05-02T08:08:45.084Z,99210.92
2019-05-02T08:11:18.263Z,99212.02
2019-05-02T08:13:55.655Z,99211.61
2019-05-02T08:16:27.332Z,99214.61
2019-05-02T08:19:05.453Z,99213.91
2019-05-02T08:21:39.141Z,99217.07
2019-05-02T08:24:15.222Z,99221.42
2019-05-02T08:26:53.338Z,99224.88
2019-05-02T08:29:28.900Z,99227.44
2019-05-02T08:32:00.757Z,99225.57
2019-05-02T08:34:34.040Z,99235.06
2019-05-02T08:37:05.706Z,99222.78
2019-05-02T08:39:37.815Z,99233.90
2019-05-02T08:42:09.906Z,99229.28
2019-05-02T08:44:51.378Z,99225.78
2019-05-02T08:47:19.307Z,99222.91
2019-05-02T08:49:54.862Z,99227.88
2019-05-02T08:52:24.834Z,99226.14
2019-05-02T08:54:58.479Z,99225.38
2019-05-02T08:57:34.582Z,99234.45
2019-05-02T09:00:08.397Z,99229.31
2019-05-02T09:02:42.116Z,99237.91
2019-05-02T09:05:14.848Z,99238.98
2019-05-02T09:07:47.712Z,99236.19
2019-05-02T09:10:19.566Z,99233.58
2019-05-02T09:12:52.079Z,99236.23
2019-05-02T09:15:24.027Z,99242.38
2019-05-02T09:17:56.583Z,99247.08
2019-05-02T09:20:31.542Z,99246.25
2019-05-02T09:23:06.680Z,99249.89
2019-05-02T09:25:39.499Z,99252.05
2019-05-02T09:28:12.487Z,99262.45
2019-05-02T09:30:46.873Z,99257.90
2019-05-02T09:33:22.687Z,99263.09
2019-05-02T09:36:02.333Z,99265.35
2019-05-02T09:38:35.677Z,99268.16
2019-05-02T09:41:17.055Z,99257.79
2019-05-02T09:43:43.461Z,99258.44
2019-05-02T09:46:16.718Z,99253.66
2019-05-02T09:48:48.429Z,99260.26
2019-05-02T09:51:23.645Z,99259.52
2019-05-02T09:54:02.590Z,99263.98
2019-05-02T09:56:32.943Z,99254.34
2019-05-02T09:59:23.490Z,99246.12
2019-05-02T10:01:42.129Z,99248.95
2019-05-02T10:04:14.530Z,99253.25
2019-05-02T10:06:47.179Z,99251.77
2019-05-02T10:09:24.310Z,99255.69
2019-05-02T10:11:56.326Z,99261.47
2019-05-02T10:14:30.055Z,99261.58
2019-05-02T10:17:07.160Z,99266.92
2019-05-02T10:19:43.004Z,99278.84
2019-05-02T10:22:15.431Z,99280.16
2019-05-02T10:24:47.039Z,99279.08
2019-05-02T10:27:21.638Z,99276.98
2019-05-02T10:29:57.141Z,99282.65
2019-05-02T10:32:28.554Z,99286.04
2019-05-02T10:35:02.124Z,99281.44
2019-05-02T10:37:38.202Z,99279.36
2019-05-02T10:40:17.031Z,99275.18
2019-05-02T10:42:49.275Z,99273.45
2019-05-02T10:45:24.235Z,99283.98
2019-05-02T10:47:59.065Z,99274.38
2019-05-02T10:50:34.647Z,99283.31
2019-05-02T10:53:12.215Z,99279.77
2019-05-02T10:55:42.446Z,99287.41
2019-05-02T10:58:15.705Z,99285.89
2019-05-02T11:00:49.481Z,99283.00
2019-05-02T11:03:32.033Z,99280.64
2019-05-02T11:06:07.815Z,99277.22
2019-05-02T11:08:42.122Z,99275.96
2019-05-02T11:11:16.617Z,99274.05
2019-05-02T11:14:00.609Z,99277.34
2019-05-02T11:16:52.587Z,99287.45
2019-05-02T11:19:42.715Z,99294.45
2019-05-02T11:22:16.887Z,99291.56
2019-05-02T11:24:48.582Z,99287.36
2019-05-02T11:27:22.090Z,99287.63
2019-05-02T11:29:54.198Z,99290.30
2019-05-02T11:32:27.293Z,99289.38
2019-05-02T11:34:59.252Z,99294.43
2019-05-02T11:37:32.859Z,99299.91
2019-05-02T11:40:09.440Z,99294.88
2019-05-02T11:42:42.542Z,99298.38
2019-05-02T11:45:15.451Z,99299.28
2019-05-02T11:47:49.705Z,99311.21
2019-05-02T11:50:22.096Z,99307.87
2019-05-02T11:53:09.201Z,99313.48
2019-05-02T11:55:37.519Z,99315.41
2019-05-02T11:58:10.646Z,99315.95
2019-05-02T12:00:49.326Z,99314.67
2019-05-02T12:03:28.093Z,99319.61
2019-05-02T12:06:01.943Z,99319.90
2019-05-02T12:08:39.435Z,99319.10
2019-05-02T12:11:16.049Z,99305.11
2019-05-02T12:13:54.861Z,99308.75
2019-05-02T12:16:23.002Z,99306.16
2019-05-02T12:19:09.461Z,99310.30
2019-05-02T12:21:42.074Z,99308.11
2019-05-02T12:24:16.877Z,99303.42
2019-05-02T12:26:52.670Z,99280.44
2019-05-02T12:29:25.721Z,99301.72
2019-05-02T12:32:17.701Z,99297.69
2019-05-02T12:34:52.598Z,99311.36
2019-05-02T12:37:25.922Z,99294.66
2019-05-02T12:39:57.454Z,99292.77
2019-05-02T12:42:32.698Z,99291.84
2019-05-02T12:45:05.919Z,99283.27
2019-05-02T12:47:38.483Z,99297.27
2019-05-02T12:50:12.104Z,99289.15
2019-05-02T12:52:44.252Z,99284.33
2019-05-02T12:55:15.998Z,99288.84
2019-05-02T12:57:47.649Z,99288.18
2019-05-02T13:00:22.218Z,99289.15
2019-05-02T13:03:04.888Z,99285.30
2019-05-02T13:05:39.271Z,99297.23
2019-05-02T13:08:12.292Z,99299.05
2019-05-02T13:10:55.842Z,99288.38
2019-05-02T13:13:23.827Z,99293.88
2019-05-02T13:15:55.450Z,99303.51
2019-05-02T13:18:32.479Z,99309.33
2019-05-02T13:21:08.070Z,99307.91
2019-05-02T13:23:43.755Z,99301.31
2019-05-02T13:26:21.932Z,99293.19
2019-05-02T13:28:51.608Z,99295.86
2019-05-02T13:31:27.823Z,99291.20
2019-05-02T13:34:22.348Z,99284.05
2019-05-02T13:36:57.754Z,99290.81
2019-05-02T13:39:45.209Z,99285.23
2019-05-02T13:42:18.013Z,99283.63
2019-05-02T13:44:57.590Z,99288.88
2019-05-02T13:47:32.509Z,99290.63
2019-05-02T13:50:06.304Z,99292.58
2019-05-02T13:52:39.153Z,99297.02
2019-05-02T13:55:14.257Z,99293.36
2019-05-02T13:57:47.133Z,99301.38
2019-05-02T14:00:22.428Z,99295.84
2019-05-02T14:02:58.099Z,99298.41
2019-05-02T14:05:31.822Z,99301.51
2019-05-02T14:08:19.541Z,99300.39
2019-05-02T14:10:56.680Z,99307.95
2019-05-02T14:13:31.664Z,99303.72
2019-05-02T14:16:04.068Z,99297.48
2019-05-02T14:18:37.242Z,99295.77
2019-05-02T14:21:10.125Z,99296.70
2019-05-02T14:23:42.826Z,99299.47
2019-05-02T14:26:27.431Z,99285.63
2019-05-02T14:28:53.107Z,99284.53
2019-05-02T14:31:26.873Z,99283.17
2019-05-02T14:34:07.979Z,99284.51
2019-05-02T14:36:44.584Z,99285.88
2019-05-02T14:39:16.188Z,99283.22
2019-05-02T14:41:48.997Z,99280.03
2019-05-02T14:44:36.201Z,99275.53
2019-05-02T14:46:59.683Z,99280.12
2019-05-02T14:49:32.754Z,99283.74
2019-05-02T14:52:07.119Z,99277.76
2019-05-02T14:54:43.998Z,99277.76
2019-05-02T14:57:17.024Z,99287.12
2019-05-02T14:59:59.060Z,99276.32
2019-05-02T15:02:39.266Z,99270.56
2019-05-02T15:05:13.110Z,99259.44
2019-05-02T15:07:45.707Z,99276.81
2019-05-02T15:10:18.110Z,99273.98
2019-05-02T15:12:58.965Z,99277.02
2019-05-02T15:15:27.925Z,99279.86
2019-05-02T15:18:00.253Z,99279.08
2019-05-02T15:20:39.218Z,99275.48
2019-05-02T15:23:07.264Z,99274.63
2019-05-02T15:25:47.058Z,99268.22
2019-05-02T15:28:23.271Z,99270.47
2019-05-02T15:31:11.826Z,99269.33
2019-05-02T15:33:45.345Z,99268.19
2019-05-02T15:36:16.988Z,99267.41
2019-05-02T15:38:52.781Z,99272.61
2019-05-02T15:41:24.917Z,99273.52
2019-05-02T15:43:56.413Z,99267.50
2019-05-02T15:46:28.351Z,99275.01
2019-05-02T15:49:01.746Z,99266.30
2019-05-02T15:51:38.098Z,99286.06
2019-05-02T15:54:12.506Z,99291.58
2019-05-02T15:57:03.704Z,99286.84
2019-05-02T15:59:41.899Z,99294.18
2019-05-02T16:02:12.901Z,99302.34
2019-05-02T16:04:45.694Z,99309.11
2019-05-02T16:07:19.596Z,99311.62
2019-05-02T16:09:51.707Z,99312.62
2019-05-02T16:12:27.031Z,99321.25
2019-05-02T16:14:57.684Z,99320.10
2019-05-02T16:17:33.756Z,99327.35
2019-05-02T16:20:11.321Z,99326.43
2019-05-02T16:22:49.588Z,99330.59
2019-05-02T16:25:19.956Z,99330.78
2019-05-02T16:27:57.398Z,99331.41
2019-05-02T16:30:29.639Z,99333.16
2019-05-02T16:33:02.830Z,99331.23
2019-05-02T16:35:36.529Z,99332.04
2019-05-02T16:38:09.190Z,99331.66
2019-05-02T16:40:41.855Z,99344.16
2019-05-02T16:43:17.773Z,99344.95
2019-05-02T16:45:49.877Z,99353.81
2019-05-02T16:48:23.886Z,99351.84
2019-05-02T16:50:56.972Z,99363.27
2019-05-02T16:53:31.622Z,99363.27
2019-05-02T16:56:06.985Z,99367.31
2019-05-02T16:58:43.293Z,99370.86
2019-05-02T17:01:26.567Z,99382.42
2019-05-02T17:03:53.124Z,99388.33
2019-05-02T17:06:27.508Z,99385.86
2019-05-02T17:09:11.881Z,99388.03
2019-05-02T17:11:46.415Z,99394.44
2019-05-02T17:14:18.295Z,99396.38
2019-05-02T17:16:55.880Z,99403.21
2019-05-02T17:19:31.448Z,99407.06
2019-05-02T17:21:59.560Z,99410.65
2019-05-02T17:24:32.613Z,99412.81
2019-05-02T17:27:05.623Z,99419.17
2019-05-02T17:29:41.537Z,99421.27
2019-05-02T17:32:14.099Z,99425.99
2019-05-02T17:34:45.714Z,99438.06
2019-05-02T17:37:17.339Z,99435.88
2019-05-02T17:39:49.610Z,99438.97
2019-05-02T17:42:25.773Z,99449.30
2019-05-02T17:44:57.924Z,99457.19
2019-05-02T17:47:36.224Z,99459.39
2019-05-02T17:50:19.394Z,99460.82
2019-05-02T17:52:56.039Z,99461.53
2019-05-02T17:55:32.814Z,99473.20
2019-05-02T17:58:12.474Z,99480.50
2019-05-02T18:00:47.402Z,99480.38
2019-05-02T18:03:18.147Z,99486.84
2019-05-02T18:05:49.731Z,99484.93
2019-05-02T18:08:22.622Z,99484.93
2019-05-02T18:10:58.538Z,99489.39
2019-05-02T18:13:33.743Z,99492.16
2019-05-02T18:16:07.803Z,99480.88
2019-05-02T18:18:43.802Z,99486.61
2019-05-02T18:21:12.806Z,99488.41
2019-05-02T18:23:47.036Z,99496.98
2019-05-02T18:26:22.146Z,99496.02
2019-05-02T18:28:57.151Z,99498.34
2019-05-02T18:31:30.005Z,99501.69
2019-05-02T18:34:14.365Z,99502.69
2019-05-02T18:36:43.599Z,99511.42
2019-05-02T18:39:15.165Z,99512.38
2019-05-02T18:41:48.150Z,99518.00
2019-05-02T18:44:21.893Z,99520.51
2019-05-02T18:46:57.688Z,99525.48
2019-05-02T18:49:28.612Z,99524.30
2019-05-02T18:52:02.098Z,99526.09
2019-05-02T18:54:44.003Z,99520.74
2019-05-02T18:57:17.097Z,99521.82
2019-05-02T18:59:47.096Z,99529.72
2019-05-02T19:02:21.591Z,99528.84
2019-05-02T19:04:54.321Z,99529.50
2019-05-02T19:07:35.335Z,99535.20
2019-05-02T19:10:07.512Z,99540.14
2019-05-02T19:12:39.144Z,99534.17
2019-05-02T19:15:14.776Z,99523.18
2019-05-02T19:18:02.737Z,99520.78
2019-05-02T19:20:51.048Z,99522.16
2019-05-02T19:23:17.592Z,99519.44
2019-05-02T19:25:52.790Z,99519.55
2019-05-02T19:28:38.246Z,99521.37
2019-05-02T19:31:07.555Z,99530.47
2019-05-02T19:33:42.665Z,99528.02
2019-05-02T19:36:16.194Z,99525.58
2019-05-02T19:38:49.064Z,99519.64
2019-05-02T19:41:22.345Z,99527.59
2019-05-02T19:43:57.877Z,99528.22
2019-05-02T19:46:34.758Z,99541.09
2019-05-02T19:49:06.967Z,99559.11
2019-05-02T19:51:37.215Z,99563.97
2019-05-02T19:54:12.458Z,99574.25
2019-05-02T19:56:47.444Z,99567.35
2019-05-02T19:59:26.372Z,99551.66
2019-05-02T20:02:02.475Z,99546.72
2019-05-02T20:04:37.594Z,99551.34
2019-05-02T20:07:12.237Z,99567.17
2019-05-02T20:09:47.436Z,99571.76
2019-05-02T20:12:22.150Z,99574.65
2019-05-02T20:14:55.706Z,99581.66
2019-05-02T20:17:28.972Z,99582.04
2019-05-02T20:20:05.385Z,99570.05
2019-05-02T20:22:40.957Z,99573.14
2019-05-02T20:25:09.759Z,99572.88
2019-05-02T20:27:46.834Z,99574.77
2019-05-02T20:30:22.393Z,99567.48
2019-05-02T20:32:55.465Z,99568.42
2019-05-02T20:35:29.619Z,99565.97
2019-05-02T20:38:05.453Z,99568.23
2019-05-02T20:40:36.750Z,99573.49
2019-05-02T20:43:09.235Z,99572.30
2019-05-02T20:45:42.439Z,99576.33
2019-05-02T20:48:14.829Z,99572.33
2019-05-02T20:50:46.495Z,99564.42
2019-05-02T20:53:28.097Z,99578.21
2019-05-02T20:55:52.852Z,99584.97
2019-05-02T20:58:24.409Z,99573.91
2019-05-02T21:01:07.918Z,99586.25
2019-05-02T21:03:33.470Z,99575.48
2019-05-02T21:06:18.705Z,99579.14
2019-05-02T21:08:54.966Z,99566.58
2019-05-02T21:11:28.746Z,99567.05
2019-05-02T21:14:03.619Z,99559.16
2019-05-02T21:16:36.583Z,99558.91
2019-05-02T21:19:12.242Z,99564.37
2019-05-02T21:21:44.966Z,99564.16
2019-05-02T21:24:16.590Z,99566.79
2019-05-02T21:26:52.515Z,99567.16
2019-05-02T21:29:25.106Z,99566.31
2019-05-02T21:31:58.308Z,99565.41
2019-05-02T21:34:31.785Z,99566.81
2019-05-02T21:37:04.848Z,99563.80
2019-05-02T21:39:37.501Z,99563.62
2019-05-02T21:42:12.992Z,99560.23
2019-05-02T21:44:44.680Z,99558.95
2019-05-02T21:47:16.631Z,99563.15
2019-05-02T21:49:55.783Z,99569.42
2019-05-02T21:52:42.343Z,99565.50
2019-05-02T21:55:21.736Z,99558.75
2019-05-02T21:57:54.321Z,99565.77
2019-05-02T22:00:44.348Z,99566.81
2019-05-02T22:03:16.657Z,99561.58
2019-05-02T22:05:48.239Z,99557.24
2019-05-02T22:08:21.569Z,99558.75
2019-05-02T22:10:54.495Z,99566.78
2019-05-02T22:13:27.072Z,99565.41
2019-05-02T22:15:59.823Z,99571.29
2019-05-02T22:18:32.243Z,99578.92
2019-05-02T22:21:04.091Z,99581.84
2019-05-02T22:23:35.665Z,99593.27
2019-05-02T22:26:07.215Z,99595.30
2019-05-02T22:28:38.785Z,99593.41
2019-05-02T22:31:12.294Z,99588.51
2019-05-02T22:33:44.650Z,99580.34
2019-05-02T22:36:16.599Z,99579.70
2019-05-02T22:38:49.777Z,99574.30
2019-05-02T22:41:22.347Z,99570.59
2019-05-02T22:43:55.441Z,99577.00
2019-05-02T22:46:43.326Z,99580.39
2019-05-02T22:49:15.634Z,99578.91
2019-05-02T22:51:47.225Z,99583.13
2019-05-02T22:54:27.899Z,99577.04
2019-05-02T22:56:52.267Z,99574.05
2019-05-02T22:59:24.098Z,99581.81
2019-05-02T23:01:56.035Z,99594.23
2019-05-02T23:04:32.326Z,99596.27
2019-05-02T23:07:03.545Z,99591.02
2019-05-02T23:09:35.198Z,99586.22
2019-05-02T23:12:08.510Z,99590.40
2019-05-02T23:14:41.795Z,99599.75
2019-05-02T23:17:13.533Z,99590.33
2019-05-02T23:19:45.591Z,99588.80
2019-05-02T23:22:17.021Z,99583.73
2019-05-02T23:24:51.907Z,99579.03
2019-05-02T23:27:42.351Z,99585.22
2019-05-02T23:30:16.473Z,99583.77
2019-05-02T23:32:48.049Z,99584.73
2019-05-02T23:35:21.271Z,99586.22
2019-05-02T23:37:53.026Z,99580.63
2019-05-02T23:40:24.910Z,99573.83
2019-05-02T23:42:56.397Z,99569.86
2019-05-02T23:45:29.314Z,99573.36
2019-05-02T23:48:02.155Z,99573.48
2019-05-02T23:50:34.136Z,99568.61
2019-05-02T23:53:05.815Z,99561.53
2019-05-02T23:55:37.366Z,99554.62
2019-05-02T23:58:08.980Z,99563.62
